createdAt,value
2018-09-17T00:01:44.912Z,83.29
2018-09-17T00:04:13.416Z,83.77
2018-09-17T00:06:41.932Z,83.91
2018-09-17T00:09:11.741Z,84.29
2018-09-17T00:11:40.361Z,84.53
2018-09-17T00:14:09.139Z,83.95
2018-09-17T00:16:37.729Z,83.76
2018-09-17T00:19:06.340Z,84.28
2018-09-17T00:21:35.361Z,84.81
2018-09-17T00:24:03.965Z,84.31
2018-09-17T00:26:32.528Z,85.37
2018-09-17T00:29:01.248Z,85.40
2018-09-17T00:31:29.744Z,85.25
2018-09-17T00:33:58.463Z,85.74
2018-09-17T00:36:27.180Z,85.86
2018-09-17T00:38:55.696Z,85.91
2018-09-17T00:41:24.209Z,85.76
2018-09-17T00:43:52.726Z,85.47
2018-09-17T00:46:21.229Z,86.24
2018-09-17T00:48:49.756Z,85.55
2018-09-17T00:51:18.725Z,86.53
2018-09-17T00:53:47.262Z,86.31
2018-09-17T00:56:17.001Z,85.50
2018-09-17T00:58:45.527Z,85.68
2018-09-17T01:01:14.269Z,85.62
2018-09-17T01:03:42.748Z,85.44
2018-09-17T01:06:11.239Z,85.38
2018-09-17T01:08:39.786Z,84.89
2018-09-17T01:11:08.316Z,85.44
2018-09-17T01:13:36.818Z,86.06
2018-09-17T01:16:05.343Z,86.16
2018-09-17T01:18:33.859Z,85.67
2018-09-17T01:21:02.397Z,86.23
2018-09-17T01:23:30.935Z,85.86
2018-09-17T01:25:59.474Z,85.82
2018-09-17T01:28:28.053Z,85.93
2018-09-17T01:30:56.586Z,86.04
2018-09-17T01:33:25.135Z,85.90
2018-09-17T01:35:54.001Z,85.72
2018-09-17T01:38:22.521Z,86.65
2018-09-17T01:40:51.175Z,86.06
2018-09-17T01:43:20.126Z,85.64
2018-09-17T01:45:48.810Z,85.80
2018-09-17T01:48:17.297Z,86.03
2018-09-17T01:50:46.784Z,86.80
2018-09-17T01:53:15.403Z,86.20
2018-09-17T01:55:43.920Z,86.56
2018-09-17T01:58:12.523Z,86.18
2018-09-17T02:00:41.162Z,86.48
2018-09-17T02:03:09.719Z,86.42
2018-09-17T02:05:38.378Z,85.99
2018-09-17T02:08:07.242Z,86.33
2018-09-17T02:10:35.793Z,86.29
2018-09-17T02:13:04.400Z,85.90
2018-09-17T02:15:33.180Z,86.20
2018-09-17T02:18:01.656Z,86.33
2018-09-17T02:20:30.169Z,86.44
2018-09-17T02:22:58.710Z,86.58
2018-09-17T02:25:27.200Z,86.75
2018-09-17T02:27:55.848Z,85.96
2018-09-17T02:30:24.314Z,86.06
2018-09-17T02:32:52.861Z,86.14
2018-09-17T02:35:21.360Z,85.84
2018-09-17T02:37:49.845Z,85.97
2018-09-17T02:40:18.968Z,86.81
2018-09-17T02:42:49.435Z,86.19
2018-09-17T02:45:18.486Z,86.98
2018-09-17T02:47:47.007Z,86.51
2018-09-17T02:50:15.589Z,86.05
2018-09-17T02:52:44.089Z,86.20
2018-09-17T02:55:12.659Z,85.90
2018-09-17T02:57:41.178Z,86.64
2018-09-17T03:00:10.422Z,86.41
2018-09-17T03:02:39.448Z,86.00
2018-09-17T03:05:08.490Z,87.00
2018-09-17T03:07:36.963Z,86.80
2018-09-17T03:10:05.616Z,86.28
2018-09-17T03:12:34.117Z,86.75
2018-09-17T03:15:13.667Z,87.32
2018-09-17T03:17:42.173Z,87.52
2018-09-17T03:20:10.711Z,87.11
2018-09-17T03:22:39.696Z,87.29
2018-09-17T03:25:08.198Z,87.51
2018-09-17T03:27:36.685Z,87.65
2018-09-17T03:30:05.285Z,86.99
2018-09-17T03:32:33.847Z,86.49
2018-09-17T03:35:02.381Z,86.73
2018-09-17T03:37:30.929Z,87.29
2018-09-17T03:40:00.796Z,86.66
2018-09-17T03:42:30.059Z,87.20
2018-09-17T03:44:59.117Z,87.76
2018-09-17T03:47:28.244Z,87.55
2018-09-17T03:49:56.760Z,87.48
2018-09-17T03:52:25.428Z,87.62
2018-09-17T03:54:54.086Z,87.25
2018-09-17T03:57:23.078Z,87.59
2018-09-17T03:59:51.619Z,87.79
2018-09-17T04:02:20.105Z,87.92
2018-09-17T04:04:48.701Z,87.61
2018-09-17T04:07:17.233Z,87.59
2018-09-17T04:09:45.907Z,87.77
2018-09-17T04:12:15.470Z,88.04
2018-09-17T04:14:44.153Z,87.89
2018-09-17T04:17:12.671Z,88.12
2018-09-17T04:19:41.165Z,87.58
2018-09-17T04:22:10.480Z,87.56
2018-09-17T04:24:39.660Z,88.07
2018-09-17T04:27:08.129Z,88.01
2018-09-17T04:29:36.667Z,88.93
2018-09-17T04:32:05.175Z,88.10
2018-09-17T04:34:34.537Z,88.20
2018-09-17T04:37:03.106Z,88.16
2018-09-17T04:39:31.650Z,87.44
2018-09-17T04:42:00.170Z,87.78
2018-09-17T04:44:28.702Z,87.99
2018-09-17T04:46:57.171Z,87.84
2018-09-17T04:49:25.693Z,87.85
2018-09-17T04:51:54.224Z,88.06
2018-09-17T04:54:22.792Z,87.91
2018-09-17T04:56:51.728Z,88.18
2018-09-17T04:59:20.304Z,88.68
2018-09-17T05:01:48.835Z,88.03
2018-09-17T05:04:17.819Z,88.58
2018-09-17T05:06:46.318Z,88.27
2018-09-17T05:09:14.829Z,88.69
2018-09-17T05:11:43.388Z,88.64
2018-09-17T05:14:11.853Z,88.09
2018-09-17T05:16:40.381Z,87.99
2018-09-17T05:19:08.928Z,88.61
2018-09-17T05:21:37.440Z,88.73
2018-09-17T05:24:06.356Z,88.63
2018-09-17T05:26:34.905Z,88.57
2018-09-17T05:29:03.416Z,89.00
2018-09-17T05:31:32.028Z,88.63
2018-09-17T05:34:00.573Z,88.64
2018-09-17T05:36:29.149Z,88.71
2018-09-17T05:38:57.680Z,88.68
2018-09-17T05:41:26.173Z,87.95
2018-09-17T05:43:54.718Z,88.76
2018-09-17T05:46:23.156Z,87.88
2018-09-17T05:48:51.681Z,88.00
2018-09-17T05:51:20.376Z,88.15
2018-09-17T05:53:48.921Z,88.04
2018-09-17T05:56:17.382Z,87.11
2018-09-17T05:58:45.987Z,86.52
2018-09-17T06:01:14.499Z,86.67
2018-09-17T06:03:43.386Z,85.66
2018-09-17T06:06:11.940Z,86.08
2018-09-17T06:08:40.704Z,85.09
2018-09-17T06:11:09.450Z,84.50
2018-09-17T06:13:38.216Z,83.22
2018-09-17T06:16:06.736Z,82.55
2018-09-17T06:18:35.312Z,82.20
2018-09-17T06:21:04.436Z,82.60
2018-09-17T06:23:32.893Z,81.47
2018-09-17T06:26:01.416Z,81.94
2018-09-17T06:28:30.179Z,80.46
2018-09-17T06:30:58.680Z,79.37
2018-09-17T06:33:27.137Z,78.77
2018-09-17T06:35:55.649Z,77.65
2018-09-17T06:38:24.282Z,76.86
2018-09-17T06:40:52.885Z,76.02
2018-09-17T06:43:21.445Z,76.28
2018-09-17T06:45:49.980Z,75.83
2018-09-17T06:48:18.642Z,75.46
2018-09-17T06:50:47.254Z,74.67
2018-09-17T06:53:15.745Z,74.64
2018-09-17T06:55:44.244Z,74.13
2018-09-17T06:58:12.758Z,72.69
2018-09-17T07:00:41.287Z,72.98
2018-09-17T07:03:09.788Z,72.60
2018-09-17T07:05:38.483Z,71.54
2018-09-17T07:08:07.000Z,71.76
2018-09-17T07:10:35.534Z,70.83
2018-09-17T07:13:04.073Z,71.00
2018-09-17T07:15:32.573Z,69.30
2018-09-17T07:18:01.091Z,69.89
2018-09-17T07:20:29.595Z,69.08
2018-09-17T07:22:58.254Z,68.45
2018-09-17T07:25:26.736Z,68.22
2018-09-17T07:27:55.273Z,67.30
2018-09-17T07:30:23.814Z,67.46
2018-09-17T07:32:52.369Z,67.06
2018-09-17T07:35:20.869Z,66.05
2018-09-17T07:37:49.396Z,66.48
2018-09-17T07:40:17.883Z,66.03
2018-09-17T07:42:46.408Z,65.98
2018-09-17T07:45:14.942Z,66.04
2018-09-17T07:47:43.492Z,65.74
2018-09-17T07:50:12.105Z,65.35
2018-09-17T07:52:40.618Z,65.06
2018-09-17T07:55:09.112Z,64.99
2018-09-17T07:57:38.169Z,65.08
2018-09-17T08:00:06.708Z,65.38
2018-09-17T08:02:35.237Z,65.46
2018-09-17T08:05:03.717Z,65.61
2018-09-17T08:07:32.429Z,65.51
2018-09-17T08:10:00.968Z,65.23
2018-09-17T08:12:29.468Z,64.92
2018-09-17T08:14:57.988Z,65.45
2018-09-17T08:17:26.559Z,64.34
2018-09-17T08:19:55.070Z,64.22
2018-09-17T08:22:23.583Z,63.98
2018-09-17T08:24:52.090Z,64.11
2018-09-17T08:27:20.644Z,64.66
2018-09-17T08:29:49.193Z,63.08
2018-09-17T08:32:17.708Z,63.18
2018-09-17T08:34:46.199Z,62.12
2018-09-17T08:37:14.723Z,61.64
2018-09-17T08:39:43.782Z,61.17
2018-09-17T08:42:12.248Z,61.16
2018-09-17T08:44:40.749Z,59.38
2018-09-17T08:47:09.259Z,58.60
2018-09-17T08:49:37.755Z,59.36
2018-09-17T08:52:06.401Z,58.54
2018-09-17T08:54:39.854Z,57.45
2018-09-17T08:57:13.605Z,57.14
2018-09-17T08:59:46.270Z,57.28
2018-09-17T09:02:15.713Z,55.13
2018-09-17T09:04:49.760Z,53.95
2018-09-17T09:07:23.475Z,53.34
2018-09-17T09:09:54.070Z,54.71
2018-09-17T09:12:26.022Z,54.39
2018-09-17T09:15:00.684Z,53.20
2018-09-17T09:17:29.244Z,54.69
2018-09-17T09:19:57.741Z,52.49
2018-09-17T09:22:26.220Z,51.91
2018-09-17T09:24:54.734Z,51.70
2018-09-17T09:27:23.297Z,52.02
2018-09-17T09:29:51.889Z,51.10
2018-09-17T09:32:20.473Z,51.31
2018-09-17T09:34:49.035Z,52.83
2018-09-17T09:37:17.572Z,51.61
2018-09-17T09:39:46.182Z,51.57
2018-09-17T09:42:14.714Z,50.97
2018-09-17T09:44:43.382Z,50.70
2018-09-17T09:47:12.130Z,51.89
2018-09-17T09:49:40.598Z,49.63
2018-09-17T09:52:09.320Z,49.98
2018-09-17T09:54:38.176Z,48.34
2018-09-17T09:57:06.722Z,49.31
2018-09-17T09:59:35.616Z,47.93
2018-09-17T10:02:09.264Z,47.33
2018-09-17T10:04:37.737Z,47.74
2018-09-17T10:07:06.285Z,48.89
2018-09-17T10:09:39.983Z,48.74
2018-09-17T10:12:13.695Z,48.45
2018-09-17T10:14:47.378Z,49.06
2018-09-17T10:18:25.069Z,48.46
2018-09-17T10:20:53.559Z,49.70
2018-09-17T10:23:22.429Z,47.83
2018-09-17T10:25:51.021Z,47.84
2018-09-17T10:28:19.504Z,48.48
2018-09-17T10:30:48.206Z,46.92
2018-09-17T10:33:16.769Z,46.44
2018-09-17T10:35:45.261Z,46.29
2018-09-17T10:38:27.110Z,45.98
2018-09-17T10:40:55.612Z,46.62
2018-09-17T10:43:24.399Z,48.18
2018-09-17T10:45:52.949Z,45.34
2018-09-17T10:48:21.437Z,45.74
2018-09-17T10:50:50.239Z,46.31
2018-09-17T10:53:18.720Z,46.89
2018-09-17T10:55:47.241Z,46.40
2018-09-17T10:58:15.849Z,46.27
2018-09-17T11:00:44.509Z,44.76
2018-09-17T11:03:13.190Z,44.40
2018-09-17T11:05:41.721Z,44.44
2018-09-17T11:08:10.281Z,44.12
2018-09-17T11:10:39.028Z,43.20
2018-09-17T11:13:07.567Z,42.86
2018-09-17T11:15:41.474Z,42.65
2018-09-17T11:18:10.061Z,41.86
2018-09-17T11:20:38.595Z,42.67
2018-09-17T11:23:07.351Z,43.49
2018-09-17T11:25:35.842Z,43.90
2018-09-17T11:28:04.429Z,44.86
2018-09-17T11:30:32.981Z,43.53
2018-09-17T11:33:01.543Z,44.42
2018-09-17T11:35:30.071Z,43.18
2018-09-17T11:37:58.587Z,43.84
2018-09-17T11:40:27.134Z,43.00
2018-09-17T11:42:55.609Z,43.11
2018-09-17T11:45:24.136Z,41.06
2018-09-17T11:47:52.649Z,40.42
2018-09-17T11:50:21.163Z,40.99
2018-09-17T11:52:49.985Z,41.50
2018-09-17T11:55:18.520Z,42.45
2018-09-17T11:57:47.027Z,40.84
2018-09-17T12:00:20.620Z,41.44
2018-09-17T12:02:54.852Z,41.89
2018-09-17T12:05:28.729Z,42.84
2018-09-17T12:07:57.304Z,40.89
2018-09-17T12:10:25.808Z,39.06
2018-09-17T12:12:54.371Z,37.98
2018-09-17T12:15:23.096Z,38.62
2018-09-17T12:17:51.753Z,35.28
2018-09-17T12:20:21.538Z,33.42
2018-09-17T12:22:50.061Z,35.50
2018-09-17T12:25:18.699Z,35.95
2018-09-17T12:27:47.298Z,32.50
2018-09-17T12:30:15.827Z,32.56
2018-09-17T12:32:44.564Z,31.24
2018-09-17T12:35:13.072Z,31.17
2018-09-17T12:37:41.757Z,32.77
2018-09-17T12:40:10.321Z,34.75
2018-09-17T12:42:38.832Z,33.29
2018-09-17T12:45:07.461Z,30.67
2018-09-17T12:47:35.992Z,32.15
2018-09-17T12:50:04.571Z,29.98
2018-09-17T12:52:33.078Z,29.39
2018-09-17T12:55:01.612Z,32.75
2018-09-17T12:57:30.195Z,31.26
2018-09-17T12:59:58.808Z,34.39
2018-09-17T13:02:27.290Z,32.38
2018-09-17T13:04:55.963Z,31.14
2018-09-17T13:07:24.471Z,29.62
2018-09-17T13:09:52.975Z,31.40
2018-09-17T13:12:21.530Z,29.95
2018-09-17T13:14:50.088Z,30.81
2018-09-17T13:17:18.598Z,29.30
2018-09-17T13:19:47.164Z,30.48
2018-09-17T13:22:15.761Z,30.83
2018-09-17T13:24:44.429Z,29.57
2018-09-17T13:27:12.912Z,29.79
2018-09-17T13:29:41.408Z,31.64
2018-09-17T13:32:09.946Z,30.14
2018-09-17T13:34:38.713Z,29.31
2018-09-17T13:37:07.374Z,29.33
2018-09-17T13:39:35.901Z,29.77
2018-09-17T13:42:04.468Z,31.70
2018-09-17T13:44:33.164Z,29.69
2018-09-17T13:47:01.960Z,29.45
2018-09-17T13:49:30.536Z,30.79
2018-09-17T13:51:59.190Z,29.18
2018-09-17T13:54:28.006Z,29.40
2018-09-17T13:56:56.640Z,29.50
2018-09-17T13:59:25.297Z,29.62
2018-09-17T14:01:53.808Z,29.93
2018-09-17T14:04:22.335Z,30.31
2018-09-17T14:06:50.927Z,30.14
2018-09-17T14:09:19.513Z,27.97
2018-09-17T14:11:48.062Z,26.12
2018-09-17T14:14:16.585Z,28.78
2018-09-17T14:16:45.230Z,27.91
2018-09-17T14:19:13.810Z,25.59
2018-09-17T14:21:42.365Z,25.23
2018-09-17T14:24:10.903Z,28.70
2018-09-17T14:26:39.600Z,28.96
2018-09-17T14:29:08.251Z,25.95
2018-09-17T14:31:42.189Z,26.19
2018-09-17T14:34:10.745Z,25.33
2018-09-17T14:36:39.318Z,26.50
2018-09-17T14:39:09.061Z,26.98
2018-09-17T14:41:37.765Z,26.20
2018-09-17T14:44:06.420Z,24.84
2018-09-17T14:46:34.990Z,27.01
2018-09-17T14:49:03.633Z,27.41
2018-09-17T14:51:32.188Z,26.76
2018-09-17T14:54:00.987Z,23.62
2018-09-17T14:56:29.471Z,23.07
2018-09-17T14:58:58.225Z,23.61
2018-09-17T15:01:27.902Z,22.40
2018-09-17T15:03:56.449Z,22.11
2018-09-17T15:06:25.005Z,23.77
2018-09-17T15:08:53.574Z,22.73
2018-09-17T15:11:22.102Z,23.96
2018-09-17T15:13:50.727Z,23.38
2018-09-17T15:16:20.736Z,22.90
2018-09-17T15:18:49.427Z,21.57
2018-09-17T15:21:17.984Z,22.14
2018-09-17T15:23:46.586Z,22.87
2018-09-17T15:26:15.161Z,20.28
2018-09-17T15:28:43.650Z,20.85
2018-09-17T15:31:12.204Z,20.60
2018-09-17T15:33:40.700Z,21.36
2018-09-17T15:36:09.244Z,20.90
2018-09-17T15:38:37.871Z,20.83
2018-09-17T15:41:06.445Z,23.44
2018-09-17T15:43:34.898Z,23.78
2018-09-17T15:46:03.741Z,23.37
2018-09-17T15:48:32.258Z,24.69
2018-09-17T15:51:00.740Z,25.51
2018-09-17T15:53:29.256Z,26.03
2018-09-17T15:55:57.847Z,24.67
2018-09-17T15:58:26.373Z,25.81
2018-09-17T16:00:54.873Z,24.71
2018-09-17T16:03:23.403Z,25.02
2018-09-17T16:05:51.993Z,26.42
2018-09-17T16:08:20.489Z,27.45
2018-09-17T16:10:49.038Z,26.31
2018-09-17T16:13:17.601Z,25.72
2018-09-17T16:15:47.472Z,24.50
2018-09-17T16:18:16.928Z,24.57
2018-09-17T16:20:45.437Z,23.89
2018-09-17T16:23:13.969Z,23.96
2018-09-17T16:25:42.665Z,23.66
2018-09-17T16:28:11.174Z,23.64
2018-09-17T16:30:39.716Z,25.72
2018-09-17T16:33:08.284Z,25.70
2018-09-17T16:35:36.862Z,25.19
2018-09-17T16:38:05.435Z,26.16
2018-09-17T16:40:33.991Z,26.97
2018-09-17T16:43:02.512Z,26.43
2018-09-17T16:45:31.049Z,26.90
2018-09-17T16:47:59.624Z,27.87
2018-09-17T16:50:28.457Z,28.34
2018-09-17T16:52:57.015Z,29.99
2018-09-17T16:55:25.538Z,31.65
2018-09-17T16:57:54.292Z,32.23
2018-09-17T17:00:22.993Z,32.89
2018-09-17T17:02:51.504Z,33.83
2018-09-17T17:05:20.050Z,35.46
2018-09-17T17:07:48.592Z,36.06
2018-09-17T17:10:17.195Z,35.91
2018-09-17T17:12:45.710Z,37.93
2018-09-17T17:15:14.208Z,40.24
2018-09-17T17:17:42.757Z,41.46
2018-09-17T17:20:11.293Z,42.03
2018-09-17T17:22:39.822Z,42.39
2018-09-17T17:25:08.382Z,43.17
2018-09-17T17:27:39.849Z,43.21
2018-09-17T17:30:08.832Z,45.29
2018-09-17T17:32:37.370Z,46.39
2018-09-17T17:35:06.075Z,47.26
2018-09-17T17:37:34.635Z,47.86
2018-09-17T17:40:03.249Z,48.19
2018-09-17T17:42:31.719Z,49.25
2018-09-17T17:45:00.258Z,52.07
2018-09-17T17:47:28.847Z,51.54
2018-09-17T17:49:57.445Z,51.81
2018-09-17T17:52:25.990Z,53.81
2018-09-17T17:54:54.542Z,54.17
2018-09-17T17:57:23.084Z,54.19
2018-09-17T17:59:51.737Z,53.77
2018-09-17T18:02:20.274Z,54.83
2018-09-17T18:04:48.888Z,55.76
2018-09-17T18:07:17.507Z,56.10
2018-09-17T18:09:46.045Z,57.16
2018-09-17T18:12:14.694Z,57.87
2018-09-17T18:14:43.302Z,58.52
2018-09-17T18:17:11.869Z,58.54
2018-09-17T18:19:40.531Z,58.88
2018-09-17T18:22:09.057Z,59.38
2018-09-17T18:24:37.582Z,60.17
2018-09-17T18:27:06.097Z,61.42
2018-09-17T18:29:34.624Z,61.18
2018-09-17T18:32:03.161Z,62.00
2018-09-17T18:34:31.695Z,61.83
2018-09-17T18:37:00.504Z,62.24
2018-09-17T18:39:29.237Z,63.10
2018-09-17T18:41:57.741Z,62.93
2018-09-17T18:44:26.313Z,63.69
2018-09-17T18:46:54.876Z,63.94
2018-09-17T18:49:23.448Z,64.31
2018-09-17T18:51:52.022Z,64.57
2018-09-17T18:54:20.665Z,64.07
2018-09-17T18:56:49.338Z,64.41
2018-09-17T18:59:17.840Z,65.02
2018-09-17T19:01:46.405Z,65.14
2018-09-17T19:04:14.976Z,65.76
2018-09-17T19:06:43.541Z,65.68
2018-09-17T19:09:12.301Z,66.66
2018-09-17T19:11:41.033Z,67.04
2018-09-17T19:14:15.036Z,66.33
2018-09-17T19:16:49.734Z,66.35
2018-09-17T19:19:18.492Z,67.28
2018-09-17T19:21:52.724Z,67.63
2018-09-17T19:24:21.249Z,67.87
2018-09-17T19:26:49.872Z,68.05
2018-09-17T19:29:20.350Z,68.55
2018-09-17T19:31:49.609Z,68.21
2018-09-17T19:34:18.265Z,68.45
2018-09-17T19:36:47.249Z,68.23
2018-09-17T19:39:21.088Z,68.74
2018-09-17T19:41:49.998Z,68.09
2018-09-17T19:44:18.769Z,68.89
2018-09-17T19:46:47.219Z,69.06
2018-09-17T19:49:15.829Z,69.65
2018-09-17T19:51:49.625Z,69.67
2018-09-17T19:54:18.257Z,69.85
2018-09-17T19:56:47.076Z,70.50
2018-09-17T19:59:20.874Z,70.70
2018-09-17T20:01:49.463Z,70.40
2018-09-17T20:04:23.805Z,71.15
2018-09-17T20:06:52.458Z,70.49
2018-09-17T20:09:21.074Z,70.86
2018-09-17T20:11:49.593Z,71.63
2018-09-17T20:14:18.200Z,71.22
2018-09-17T20:16:46.852Z,71.50
2018-09-17T20:19:15.393Z,72.38
2018-09-17T20:21:44.554Z,72.43
2018-09-17T20:24:13.241Z,71.96
2018-09-17T20:26:41.777Z,72.89
2018-09-17T20:29:10.290Z,73.11
2018-09-17T20:31:38.846Z,73.45
2018-09-17T20:34:07.369Z,73.52
2018-09-17T20:36:35.856Z,73.86
2018-09-17T20:39:05.857Z,74.06
2018-09-17T20:41:34.381Z,73.85
2018-09-17T20:44:03.310Z,73.23
2018-09-17T20:46:31.822Z,73.35
2018-09-17T20:49:00.487Z,73.81
2018-09-17T20:51:29.165Z,74.25
2018-09-17T20:53:57.691Z,74.39
2018-09-17T20:56:26.241Z,75.27
2018-09-17T20:58:54.743Z,75.38
2018-09-17T21:01:23.577Z,74.95
2018-09-17T21:03:52.062Z,75.33
2018-09-17T21:06:20.773Z,74.69
2018-09-17T21:08:49.596Z,74.88
2018-09-17T21:11:18.096Z,74.53
2018-09-17T21:13:46.608Z,74.77
2018-09-17T21:16:15.343Z,75.01
2018-09-17T21:18:44.178Z,75.15
2018-09-17T21:21:12.929Z,75.02
2018-09-17T21:23:41.638Z,75.20
2018-09-17T21:26:10.429Z,75.75
2018-09-17T21:28:39.014Z,76.08
2018-09-17T21:31:07.568Z,76.10
2018-09-17T21:33:36.336Z,75.44
2018-09-17T21:36:04.886Z,76.25
2018-09-17T21:38:33.448Z,75.33
2018-09-17T21:41:02.037Z,76.13
2018-09-17T21:43:30.591Z,76.92
2018-09-17T21:45:59.137Z,77.18
2018-09-17T21:48:27.648Z,76.42
2018-09-17T21:50:56.164Z,76.25
2018-09-17T21:53:24.621Z,76.67
2018-09-17T21:55:53.511Z,76.70
2018-09-17T21:58:22.007Z,76.79
2018-09-17T22:00:55.949Z,76.76
2018-09-17T22:03:24.518Z,76.64
2018-09-17T22:05:53.072Z,76.93
2018-09-17T22:08:22.180Z,75.98
2018-09-17T22:10:50.734Z,75.93
2018-09-17T22:13:19.362Z,76.13
2018-09-17T22:15:47.906Z,75.93
2018-09-17T22:18:16.475Z,76.26
2018-09-17T22:20:44.975Z,76.23
2018-09-17T22:23:13.468Z,75.22
2018-09-17T22:25:42.135Z,75.22
2018-09-17T22:28:10.700Z,75.81
2018-09-17T22:30:39.203Z,75.47
2018-09-17T22:33:07.719Z,75.82
2018-09-17T22:35:36.270Z,75.73
2018-09-17T22:38:04.863Z,75.39
2018-09-17T22:40:33.766Z,75.61
2018-09-17T22:43:02.329Z,76.41
2018-09-17T22:45:30.826Z,75.87
2018-09-17T22:47:59.336Z,76.24
2018-09-17T22:50:27.893Z,76.64
2018-09-17T22:52:56.448Z,77.19
2018-09-17T22:55:25.219Z,77.56
2018-09-17T22:57:53.729Z,76.87
2018-09-17T23:00:22.338Z,75.91
2018-09-17T23:02:50.863Z,76.59
2018-09-17T23:05:19.644Z,77.07
2018-09-17T23:07:49.035Z,76.54
2018-09-17T23:10:17.648Z,77.48
2018-09-17T23:12:46.194Z,77.17
2018-09-17T23:15:14.745Z,78.12
2018-09-17T23:17:43.205Z,77.40
2018-09-17T23:20:11.893Z,76.92
2018-09-17T23:22:40.407Z,77.01
2018-09-17T23:25:08.931Z,77.67
2018-09-17T23:27:37.633Z,77.70
2018-09-17T23:30:06.498Z,78.20
2018-09-17T23:32:35.727Z,77.56
2018-09-17T23:35:04.375Z,77.84
2018-09-17T23:37:32.867Z,77.54
2018-09-17T23:40:01.775Z,77.61
2018-09-17T23:42:30.388Z,77.88
2018-09-17T23:44:59.275Z,77.24
2018-09-17T23:47:27.784Z,76.52
2018-09-17T23:49:56.588Z,76.26
2018-09-17T23:52:25.237Z,76.71
2018-09-17T23:54:53.816Z,76.35
2018-09-17T23:57:22.373Z,76.44
2018-09-17T23:59:50.905Z,75.93
